sensor_id;sensor_type;location;lat;lon;timestamp;P1;durP1;ratioP1;P2;durP2;ratioP2
21624;SDS011;10974;51.034;3.744;2023-02-21T04:16:42;20.03;;;12.73;;
21624;SDS011;10974;51.034;3.744;2023-02-21T04:19:08;19.20;;;12.43;;
21624;SDS011;10974;51.034;3.744;2023-02-21T04:21:34;20.80;;;12.60;;
21624;SDS011;10974;51.034;3.744;2023-02-21T04:24:00;20.23;;;12.00;;
21624;SDS011;10974;51.034;3.744;2023-02-21T04:26:26;21.20;;;12.80;;
21624;SDS011;10974;51.034;3.744;2023-02-21T04:28:54;20.43;;;13.03;;
21624;SDS011;10974;51.034;3.744;2023-02-21T04:31:21;20.40;;;12.97;;
21624;SDS011;10974;51.034;3.744;2023-02-21T04:33:47;20.23;;;13.53;;
21624;SDS011;10974;51.034;3.744;2023-02-21T04:36:14;21.40;;;13.70;;
21624;SDS011;10974;51.034;3.744;2023-02-21T04:38:40;20.00;;;12.50;;
21624;SDS011;10974;51.034;3.744;2023-02-21T04:41:06;22.60;;;13.20;;
21624;SDS011;10974;51.034;3.744;2023-02-21T04:43:32;21.10;;;13.00;;
21624;SDS011;10974;51.034;3.744;2023-02-21T04:45:59;21.70;;;13.80;;
21624;SDS011;10974;51.034;3.744;2023-02-21T04:48:25;22.73;;;13.40;;
21624;SDS011;10974;51.034;3.744;2023-02-21T04:50:51;20.20;;;13.20;;
21624;SDS011;10974;51.034;3.744;2023-02-21T04:53:17;18.93;;;12.10;;
21624;SDS011;10974;51.034;3.744;2023-02-21T04:55:43;20.40;;;12.47;;
21624;SDS011;10974;51.034;3.744;2023-02-21T04:58:09;15.53;;;10.50;;
21624;SDS011;10974;51.034;3.744;2023-02-21T05:00:35;22.60;;;12.57;;
21624;SDS011;10974;51.034;3.744;2023-02-21T05:03:01;21.13;;;12.20;;
21624;SDS011;10974;51.034;3.744;2023-02-21T05:05:27;16.83;;;11.47;;
21624;SDS011;10974;51.034;3.744;2023-02-21T05:07:53;17.00;;;11.23;;
21624;SDS011;10974;51.034;3.744;2023-02-21T05:10:20;17.27;;;11.33;;
21624;SDS011;10974;51.034;3.744;2023-02-21T05:12:46;19.07;;;10.97;;
21624;SDS011;10974;51.034;3.744;2023-02-21T05:15:12;20.40;;;12.30;;
21624;SDS011;10974;51.034;3.744;2023-02-21T05:17:39;21.73;;;12.00;;
21624;SDS011;10974;51.034;3.744;2023-02-21T05:20:05;21.70;;;12.47;;
21624;SDS011;10974;51.034;3.744;2023-02-21T05:22:36;18.20;;;11.47;;
21624;SDS011;10974;51.034;3.744;2023-02-21T05:25:04;21.47;;;11.53;;
21624;SDS011;10974;51.034;3.744;2023-02-21T05:27:30;19.00;;;11.20;;
21624;SDS011;10974;51.034;3.744;2023-02-21T05:29:56;16.03;;;11.53;;
21624;SDS011;10974;51.034;3.744;2023-02-21T05:32:22;14.17;;;9.53;;
21624;SDS011;10974;51.034;3.744;2023-02-21T05:34:49;14.20;;;9.17;;
21624;SDS011;10974;51.034;3.744;2023-02-21T05:37:16;17.23;;;10.73;;
21624;SDS011;10974;51.034;3.744;2023-02-21T05:39:45;14.67;;;9.77;;
21624;SDS011;10974;51.034;3.744;2023-02-21T05:42:11;16.43;;;11.33;;
21624;SDS011;10974;51.034;3.744;2023-02-21T05:44:37;18.20;;;10.30;;
21624;SDS011;10974;51.034;3.744;2023-02-21T05:47:03;17.23;;;10.63;;
21624;SDS011;10974;51.034;3.744;2023-02-21T05:49:31;14.83;;;9.67;;
21624;SDS011;10974;51.034;3.744;2023-02-21T05:51:57;13.60;;;8.97;;
21624;SDS011;10974;51.034;3.744;2023-02-21T05:54:23;13.83;;;9.47;;
21624;SDS011;10974;51.034;3.744;2023-02-21T05:56:50;13.50;;;9.23;;
21624;SDS011;10974;51.034;3.744;2023-02-21T05:59:17;13.10;;;9.00;;
21624;SDS011;10974;51.034;3.744;2023-02-21T06:01:45;16.00;;;9.43;;
21624;SDS011;10974;51.034;3.744;2023-02-21T06:04:11;15.80;;;9.10;;
21624;SDS011;10974;51.034;3.744;2023-02-21T06:06:37;13.37;;;8.40;;
21624;SDS011;10974;51.034;3.744;2023-02-21T06:09:03;13.63;;;9.10;;
21624;SDS011;10974;51.034;3.744;2023-02-21T06:11:30;14.57;;;9.70;;
21624;SDS011;10974;51.034;3.744;2023-02-21T06:14:03;16.67;;;10.73;;
21624;SDS011;10974;51.034;3.744;2023-02-21T06:16:36;16.40;;;9.40;;
21624;SDS011;10974;51.034;3.744;2023-02-21T06:19:03;19.37;;;10.10;;
21624;SDS011;10974;51.034;3.744;2023-02-21T06:21:29;17.03;;;10.47;;
21624;SDS011;10974;51.034;3.744;2023-02-21T06:23:55;17.90;;;10.10;;
21624;SDS011;10974;51.034;3.744;2023-02-21T06:26:22;15.20;;;10.00;;
21624;SDS011;10974;51.034;3.744;2023-02-21T06:28:48;15.13;;;10.37;;
21624;SDS011;10974;51.034;3.744;2023-02-21T06:31:15;16.40;;;9.63;;
21624;SDS011;10974;51.034;3.744;2023-02-21T06:33:41;14.13;;;9.70;;
21624;SDS011;10974;51.034;3.744;2023-02-21T06:36:09;16.03;;;10.00;;
21624;SDS011;10974;51.034;3.744;2023-02-21T06:38:36;16.80;;;9.87;;
21624;SDS011;10974;51.034;3.744;2023-02-21T06:41:06;13.53;;;9.27;;
21624;SDS011;10974;51.034;3.744;2023-02-21T06:43:32;18.27;;;11.13;;
21624;SDS011;10974;51.034;3.744;2023-02-21T06:46:00;16.53;;;10.63;;
21624;SDS011;10974;51.034;3.744;2023-02-21T06:48:26;16.90;;;10.53;;
21624;SDS011;10974;51.034;3.744;2023-02-21T06:50:52;15.57;;;10.27;;
21624;SDS011;10974;51.034;3.744;2023-02-21T06:53:18;18.23;;;10.57;;
21624;SDS011;10974;51.034;3.744;2023-02-21T06:55:44;19.17;;;10.77;;
21624;SDS011;10974;51.034;3.744;2023-02-21T06:58:10;16.93;;;10.90;;
21624;SDS011;10974;51.034;3.744;2023-02-21T07:00:36;18.33;;;10.70;;
21624;SDS011;10974;51.034;3.744;2023-02-21T07:03:02;20.63;;;11.10;;
21624;SDS011;10974;51.034;3.744;2023-02-21T07:05:28;20.50;;;13.17;;
21624;SDS011;10974;51.034;3.744;2023-02-21T07:07:59;22.77;;;11.67;;
21624;SDS011;10974;51.034;3.744;2023-02-21T07:10:25;19.03;;;11.27;;
21624;SDS011;10974;51.034;3.744;2023-02-21T07:12:51;23.50;;;11.60;;
21624;SDS011;10974;51.034;3.744;2023-02-21T07:15:17;22.57;;;12.73;;
21624;SDS011;10974;51.034;3.744;2023-02-21T07:17:43;22.97;;;12.70;;
21624;SDS011;10974;51.034;3.744;2023-02-21T07:20:09;22.90;;;12.93;;
21624;SDS011;10974;51.034;3.744;2023-02-21T07:22:36;22.07;;;11.80;;
21624;SDS011;10974;51.034;3.744;2023-02-21T07:25:02;19.37;;;11.70;;
21624;SDS011;10974;51.034;3.744;2023-02-21T07:27:28;19.90;;;11.00;;
21624;SDS011;10974;51.034;3.744;2023-02-21T07:29:54;16.97;;;10.77;;
21624;SDS011;10974;51.034;3.744;2023-02-21T07:32:20;23.90;;;13.53;;
21624;SDS011;10974;51.034;3.744;2023-02-21T07:34:46;24.80;;;12.23;;
21624;SDS011;10974;51.034;3.744;2023-02-21T07:37:12;23.87;;;12.27;;
21624;SDS011;10974;51.034;3.744;2023-02-21T07:39:39;23.80;;;12.23;;
21624;SDS011;10974;51.034;3.744;2023-02-21T07:42:05;21.17;;;11.80;;
21624;SDS011;10974;51.034;3.744;2023-02-21T07:44:34;22.17;;;11.30;;
21624;SDS011;10974;51.034;3.744;2023-02-21T07:47:00;17.90;;;11.47;;
21624;SDS011;10974;51.034;3.744;2023-02-21T07:49:26;20.83;;;11.53;;
21624;SDS011;10974;51.034;3.744;2023-02-21T07:51:52;19.33;;;11.50;;
21624;SDS011;10974;51.034;3.744;2023-02-21T07:54:18;20.70;;;11.97;;
21624;SDS011;10974;51.034;3.744;2023-02-21T07:56:45;22.17;;;11.70;;
21624;SDS011;10974;51.034;3.744;2023-02-21T07:59:12;22.27;;;12.17;;
21624;SDS011;10974;51.034;3.744;2023-02-21T08:01:38;22.50;;;13.53;;
21624;SDS011;10974;51.034;3.744;2023-02-21T08:04:04;24.37;;;12.53;;
21624;SDS011;10974;51.034;3.744;2023-02-21T08:06:31;24.10;;;13.90;;
21624;SDS011;10974;51.034;3.744;2023-02-21T08:08:58;22.73;;;12.80;;
21624;SDS011;10974;51.034;3.744;2023-02-21T08:11:24;24.27;;;13.53;;
21624;SDS011;10974;51.034;3.744;2023-02-21T08:13:50;26.20;;;13.13;;
21624;SDS011;10974;51.034;3.744;2023-02-21T08:16:16;28.70;;;14.73;;
21624;SDS011;10974;51.034;3.744;2023-02-21T08:18:42;24.00;;;13.97;;
21624;SDS011;10974;51.034;3.744;2023-02-21T08:21:09;24.10;;;12.93;;
21624;SDS011;10974;51.034;3.744;2023-02-21T08:23:35;22.63;;;13.80;;
21624;SDS011;10974;51.034;3.744;2023-02-21T08:26:02;23.27;;;13.83;;
21624;SDS011;10974;51.034;3.744;2023-02-21T08:28:28;31.07;;;15.47;;
21624;SDS011;10974;51.034;3.744;2023-02-21T08:30:54;24.37;;;14.27;;
21624;SDS011;10974;51.034;3.744;2023-02-21T08:33:20;27.00;;;15.33;;
21624;SDS011;10974;51.034;3.744;2023-02-21T08:35:46;26.00;;;15.20;;
21624;SDS011;10974;51.034;3.744;2023-02-21T08:38:12;25.50;;;14.50;;
21624;SDS011;10974;51.034;3.744;2023-02-21T08:40:38;25.50;;;14.20;;
21624;SDS011;10974;51.034;3.744;2023-02-21T08:43:05;28.33;;;14.67;;
21624;SDS011;10974;51.034;3.744;2023-02-21T08:45:31;24.93;;;14.47;;
21624;SDS011;10974;51.034;3.744;2023-02-21T08:47:57;30.30;;;15.83;;
21624;SDS011;10974;51.034;3.744;2023-02-21T08:50:24;26.10;;;15.00;;
21624;SDS011;10974;51.034;3.744;2023-02-21T08:52:51;26.63;;;15.17;;
21624;SDS011;10974;51.034;3.744;2023-02-21T08:55:17;28.30;;;15.90;;
21624;SDS011;10974;51.034;3.744;2023-02-21T08:57:44;29.37;;;16.03;;
21624;SDS011;10974;51.034;3.744;2023-02-21T09:00:11;31.83;;;15.87;;
21624;SDS011;10974;51.034;3.744;2023-02-21T09:02:38;26.00;;;14.90;;
21624;SDS011;10974;51.034;3.744;2023-02-21T09:05:08;25.53;;;15.27;;
21624;SDS011;10974;51.034;3.744;2023-02-21T09:07:34;25.60;;;15.50;;
21624;SDS011;10974;51.034;3.744;2023-02-21T09:10:00;26.57;;;15.60;;
21624;SDS011;10974;51.034;3.744;2023-02-21T09:12:26;25.57;;;14.77;;
21624;SDS011;10974;51.034;3.744;2023-02-21T09:14:53;27.60;;;16.23;;
21624;SDS011;10974;51.034;3.744;2023-02-21T09:17:18;24.47;;;14.10;;
21624;SDS011;10974;51.034;3.744;2023-02-21T09:19:44;24.80;;;12.70;;
21624;SDS011;10974;51.034;3.744;2023-02-21T09:22:11;31.27;;;15.13;;
21624;SDS011;10974;51.034;3.744;2023-02-21T09:24:37;34.43;;;14.87;;
21624;SDS011;10974;51.034;3.744;2023-02-21T09:27:03;33.70;;;15.50;;
21624;SDS011;10974;51.034;3.744;2023-02-21T09:29:30;32.97;;;14.63;;
21624;SDS011;10974;51.034;3.744;2023-02-21T09:31:56;39.43;;;15.20;;
21624;SDS011;10974;51.034;3.744;2023-02-21T09:34:22;40.97;;;15.77;;
21624;SDS011;10974;51.034;3.744;2023-02-21T09:36:49;32.17;;;14.67;;
21624;SDS011;10974;51.034;3.744;2023-02-21T09:39:15;27.13;;;13.47;;
21624;SDS011;10974;51.034;3.744;2023-02-21T09:41:41;25.47;;;13.37;;
21624;SDS011;10974;51.034;3.744;2023-02-21T09:44:09;28.73;;;13.60;;
21624;SDS011;10974;51.034;3.744;2023-02-21T09:46:38;32.03;;;13.83;;
21624;SDS011;10974;51.034;3.744;2023-02-21T09:49:06;22.27;;;12.40;;
21624;SDS011;10974;51.034;3.744;2023-02-21T09:51:35;27.33;;;12.83;;
21624;SDS011;10974;51.034;3.744;2023-02-21T09:54:05;32.33;;;14.57;;
21624;SDS011;10974;51.034;3.744;2023-02-21T09:56:37;27.03;;;13.30;;
21624;SDS011;10974;51.034;3.744;2023-02-21T09:59:11;22.03;;;12.20;;
21624;SDS011;10974;51.034;3.744;2023-02-21T10:12:09;27.40;;;14.93;;
21624;SDS011;10974;51.034;3.744;2023-02-21T10:14:43;25.57;;;12.53;;
21624;SDS011;10974;51.034;3.744;2023-02-21T10:17:12;23.80;;;12.90;;
21624;SDS011;10974;51.034;3.744;2023-02-21T10:19:41;22.10;;;12.70;;
21624;SDS011;10974;51.034;3.744;2023-02-21T10:22:19;25.43;;;10.50;;
21624;SDS011;10974;51.034;3.744;2023-02-21T10:24:46;17.73;;;10.37;;
21624;SDS011;10974;51.034;3.744;2023-02-21T10:27:16;15.93;;;10.20;;
21624;SDS011;10974;51.034;3.744;2023-02-21T10:29:45;20.73;;;12.03;;
21624;SDS011;10974;51.034;3.744;2023-02-21T10:32:13;17.50;;;10.80;;
21624;SDS011;10974;51.034;3.744;2023-02-21T10:34:39;18.10;;;11.17;;
21624;SDS011;10974;51.034;3.744;2023-02-21T10:39:54;21.67;;;11.37;;
21624;SDS011;10974;51.034;3.744;2023-02-21T10:42:58;16.63;;;10.03;;
21624;SDS011;10974;51.034;3.744;2023-02-21T10:45:15;17.37;;;11.10;;
21624;SDS011;10974;51.034;3.744;2023-02-21T10:50:39;18.03;;;10.10;;
21624;SDS011;10974;51.034;3.744;2023-02-21T10:53:06;16.80;;;9.83;;
21624;SDS011;10974;51.034;3.744;2023-02-21T10:55:33;17.90;;;11.30;;
21624;SDS011;10974;51.034;3.744;2023-02-21T10:58:09;16.30;;;10.80;;
21624;SDS011;10974;51.034;3.744;2023-02-21T11:00:42;17.93;;;10.33;;
21624;SDS011;10974;51.034;3.744;2023-02-21T11:05:38;13.70;;;8.63;;
21624;SDS011;10974;51.034;3.744;2023-02-21T11:08:05;16.60;;;11.20;;
21624;SDS011;10974;51.034;3.744;2023-02-21T11:13:05;12.97;;;9.57;;
21624;SDS011;10974;51.034;3.744;2023-02-21T11:15:31;18.73;;;10.27;;
21624;SDS011;10974;51.034;3.744;2023-02-21T11:18:02;14.60;;;9.90;;
21624;SDS011;10974;51.034;3.744;2023-02-21T11:20:28;15.67;;;10.30;;
21624;SDS011;10974;51.034;3.744;2023-02-21T11:22:54;13.53;;;9.90;;
21624;SDS011;10974;51.034;3.744;2023-02-21T11:25:27;17.43;;;9.53;;
21624;SDS011;10974;51.034;3.744;2023-02-21T11:30:38;12.27;;;8.90;;
21624;SDS011;10974;51.034;3.744;2023-02-21T11:33:05;12.90;;;8.73;;
21624;SDS011;10974;51.034;3.744;2023-02-21T11:35:32;15.13;;;9.60;;
21624;SDS011;10974;51.034;3.744;2023-02-21T11:38:00;13.20;;;8.70;;
21624;SDS011;10974;51.034;3.744;2023-02-21T11:40:32;14.67;;;9.97;;
21624;SDS011;10974;51.034;3.744;2023-02-21T11:45:39;10.77;;;8.40;;
21624;SDS011;10974;51.034;3.744;2023-02-21T11:48:10;15.00;;;9.00;;
21624;SDS011;10974;51.034;3.744;2023-02-21T11:50:39;17.63;;;8.90;;
21624;SDS011;10974;51.034;3.744;2023-02-21T11:55:41;16.40;;;8.87;;
21624;SDS011;10974;51.034;3.744;2023-02-21T11:58:27;11.63;;;7.63;;
21624;SDS011;10974;51.034;3.744;2023-02-21T12:00:59;13.50;;;8.90;;
21624;SDS011;10974;51.034;3.744;2023-02-21T12:06:09;14.73;;;8.73;;
21624;SDS011;10974;51.034;3.744;2023-02-21T12:08:39;12.20;;;8.00;;
21624;SDS011;10974;51.034;3.744;2023-02-21T12:13:47;11.17;;;8.57;;
21624;SDS011;10974;51.034;3.744;2023-02-21T12:19:01;10.17;;;8.17;;
21624;SDS011;10974;51.034;3.744;2023-02-21T12:36:48;13.87;;;9.30;;
21624;SDS011;10974;51.034;3.744;2023-02-21T12:40:02;12.27;;;9.13;;
21624;SDS011;10974;51.034;3.744;2023-02-21T12:47:19;16.80;;;9.93;;
21624;SDS011;10974;51.034;3.744;2023-02-21T12:49:59;13.60;;;9.50;;
21624;SDS011;10974;51.034;3.744;2023-02-21T12:52:39;12.20;;;9.70;;
21624;SDS011;10974;51.034;3.744;2023-02-21T12:55:30;12.70;;;9.40;;
21624;SDS011;10974;51.034;3.744;2023-02-21T13:00:40;13.70;;;9.93;;
21624;SDS011;10974;51.034;3.744;2023-02-21T13:05:38;14.13;;;10.17;;
21624;SDS011;10974;51.034;3.744;2023-02-21T13:08:15;11.67;;;9.27;;
21624;SDS011;10974;51.034;3.744;2023-02-21T13:13:14;13.17;;;9.90;;
21624;SDS011;10974;51.034;3.744;2023-02-21T13:15:42;12.57;;;9.13;;
21624;SDS011;10974;51.034;3.744;2023-02-21T13:20:52;12.20;;;9.43;;
21624;SDS011;10974;51.034;3.744;2023-02-21T13:23:20;12.47;;;9.50;;
21624;SDS011;10974;51.034;3.744;2023-02-21T13:28:26;12.30;;;9.47;;
21624;SDS011;10974;51.034;3.744;2023-02-21T13:30:57;18.90;;;9.67;;
21624;SDS011;10974;51.034;3.744;2023-02-21T13:35:50;13.97;;;9.80;;
21624;SDS011;10974;51.034;3.744;2023-02-21T13:38:16;12.43;;;10.17;;
21624;SDS011;10974;51.034;3.744;2023-02-21T13:43:28;11.83;;;10.30;;
21624;SDS011;10974;51.034;3.744;2023-02-21T13:46:20;10.30;;;9.00;;
21624;SDS011;10974;51.034;3.744;2023-02-21T13:48:41;13.60;;;10.27;;
21624;SDS011;10974;51.034;3.744;2023-02-21T13:51:07;12.70;;;9.77;;
21624;SDS011;10974;51.034;3.744;2023-02-21T13:54:06;13.83;;;9.33;;
21624;SDS011;10974;51.034;3.744;2023-02-21T13:56:43;13.90;;;10.20;;
21624;SDS011;10974;51.034;3.744;2023-02-21T14:01:50;12.33;;;10.20;;
21624;SDS011;10974;51.034;3.744;2023-02-21T14:07:01;16.43;;;10.63;;
21624;SDS011;10974;51.034;3.744;2023-02-21T14:09:27;11.80;;;9.40;;
21624;SDS011;10974;51.034;3.744;2023-02-21T14:11:53;15.03;;;10.40;;
21624;SDS011;10974;51.034;3.744;2023-02-21T14:14:22;14.33;;;9.57;;
21624;SDS011;10974;51.034;3.744;2023-02-21T14:16:52;12.77;;;9.93;;
21624;SDS011;10974;51.034;3.744;2023-02-21T14:19:42;11.67;;;9.50;;
21624;SDS011;10974;51.034;3.744;2023-02-21T14:22:23;12.23;;;9.10;;
21624;SDS011;10974;51.034;3.744;2023-02-21T14:24:50;13.60;;;8.60;;
21624;SDS011;10974;51.034;3.744;2023-02-21T14:29:44;11.80;;;9.77;;
21624;SDS011;10974;51.034;3.744;2023-02-21T14:37:05;18.50;;;10.67;;
21624;SDS011;10974;51.034;3.744;2023-02-21T14:39:37;13.90;;;9.73;;
21624;SDS011;10974;51.034;3.744;2023-02-21T14:44:34;13.43;;;10.20;;
21624;SDS011;10974;51.034;3.744;2023-02-21T14:47:09;15.37;;;10.80;;
21624;SDS011;10974;51.034;3.744;2023-02-21T15:00:15;14.30;;;11.30;;
21624;SDS011;10974;51.034;3.744;2023-02-21T15:02:49;16.03;;;11.20;;
21624;SDS011;10974;51.034;3.744;2023-02-21T15:10:25;15.90;;;11.40;;
21624;SDS011;10974;51.034;3.744;2023-02-21T15:12:59;15.73;;;11.17;;
21624;SDS011;10974;51.034;3.744;2023-02-21T15:15:27;16.13;;;10.70;;
21624;SDS011;10974;51.034;3.744;2023-02-21T15:17:58;13.47;;;10.70;;
21624;SDS011;10974;51.034;3.744;2023-02-21T15:20:25;13.27;;;10.03;;
21624;SDS011;10974;51.034;3.744;2023-02-21T15:22:59;14.80;;;10.90;;
21624;SDS011;10974;51.034;3.744;2023-02-21T15:25:26;15.80;;;10.97;;
21624;SDS011;10974;51.034;3.744;2023-02-21T15:27:53;14.97;;;11.03;;
21624;SDS011;10974;51.034;3.744;2023-02-21T15:30:30;15.57;;;10.83;;
21624;SDS011;10974;51.034;3.744;2023-02-21T15:32:58;15.03;;;11.47;;
21624;SDS011;10974;51.034;3.744;2023-02-21T15:35:48;14.83;;;11.63;;
21624;SDS011;10974;51.034;3.744;2023-02-21T15:38:16;14.60;;;10.90;;
21624;SDS011;10974;51.034;3.744;2023-02-21T15:40:43;18.03;;;12.30;;
21624;SDS011;10974;51.034;3.744;2023-02-21T15:43:16;13.57;;;10.70;;
21624;SDS011;10974;51.034;3.744;2023-02-21T15:45:46;12.87;;;10.10;;
21624;SDS011;10974;51.034;3.744;2023-02-21T15:48:13;15.27;;;10.90;;
21624;SDS011;10974;51.034;3.744;2023-02-21T15:50:40;15.80;;;10.60;;
21624;SDS011;10974;51.034;3.744;2023-02-21T15:53:12;15.10;;;11.43;;
21624;SDS011;10974;51.034;3.744;2023-02-21T15:55:38;17.63;;;12.80;;
21624;SDS011;10974;51.034;3.744;2023-02-21T16:05:41;14.43;;;10.63;;
21624;SDS011;10974;51.034;3.744;2023-02-21T16:08:10;17.97;;;11.97;;
21624;SDS011;10974;51.034;3.744;2023-02-21T16:10:37;13.87;;;10.47;;
21624;SDS011;10974;51.034;3.744;2023-02-21T16:13:05;18.30;;;11.27;;
21624;SDS011;10974;51.034;3.744;2023-02-21T16:15:32;15.30;;;10.67;;
21624;SDS011;10974;51.034;3.744;2023-02-21T16:18:00;14.93;;;10.63;;
21624;SDS011;10974;51.034;3.744;2023-02-21T16:20:29;14.97;;;10.67;;
21624;SDS011;10974;51.034;3.744;2023-02-21T16:25:56;13.83;;;9.33;;
21624;SDS011;10974;51.034;3.744;2023-02-21T16:28:23;11.47;;;9.03;;
21624;SDS011;10974;51.034;3.744;2023-02-21T16:30:49;11.30;;;7.87;;
21624;SDS011;10974;51.034;3.744;2023-02-21T16:33:15;12.17;;;8.50;;
21624;SDS011;10974;51.034;3.744;2023-02-21T16:35:41;12.80;;;8.80;;
21624;SDS011;10974;51.034;3.744;2023-02-21T16:38:15;12.00;;;8.80;;
21624;SDS011;10974;51.034;3.744;2023-02-21T16:40:41;13.07;;;10.50;;
21624;SDS011;10974;51.034;3.744;2023-02-21T16:43:07;10.20;;;7.60;;
21624;SDS011;10974;51.034;3.744;2023-02-21T16:45:39;10.63;;;8.03;;
21624;SDS011;10974;51.034;3.744;2023-02-21T16:48:09;11.80;;;8.93;;
21624;SDS011;10974;51.034;3.744;2023-02-21T16:50:37;10.90;;;9.00;;
21624;SDS011;10974;51.034;3.744;2023-02-21T16:53:04;11.53;;;9.30;;
21624;SDS011;10974;51.034;3.744;2023-02-21T16:55:31;11.83;;;9.90;;
21624;SDS011;10974;51.034;3.744;2023-02-21T16:58:06;9.60;;;6.53;;
21624;SDS011;10974;51.034;3.744;2023-02-21T17:00:33;8.40;;;5.70;;
21624;SDS011;10974;51.034;3.744;2023-02-21T17:02:59;10.50;;;6.97;;
21624;SDS011;10974;51.034;3.744;2023-02-21T17:05:25;9.57;;;6.30;;
21624;SDS011;10974;51.034;3.744;2023-02-21T17:07:52;8.70;;;6.07;;
21624;SDS011;10974;51.034;3.744;2023-02-21T17:10:18;8.43;;;5.70;;
21624;SDS011;10974;51.034;3.744;2023-02-21T17:12:44;5.50;;;4.00;;
21624;SDS011;10974;51.034;3.744;2023-02-21T17:15:11;6.70;;;5.30;;
21624;SDS011;10974;51.034;3.744;2023-02-21T17:17:37;6.27;;;4.17;;
21624;SDS011;10974;51.034;3.744;2023-02-21T17:20:04;5.90;;;4.20;;
21624;SDS011;10974;51.034;3.744;2023-02-21T17:22:30;6.30;;;4.50;;
21624;SDS011;10974;51.034;3.744;2023-02-21T17:24:56;6.00;;;4.43;;
21624;SDS011;10974;51.034;3.744;2023-02-21T17:27:22;6.70;;;4.70;;
21624;SDS011;10974;51.034;3.744;2023-02-21T17:29:48;7.30;;;4.63;;
21624;SDS011;10974;51.034;3.744;2023-02-21T17:32:14;5.90;;;4.20;;
21624;SDS011;10974;51.034;3.744;2023-02-21T17:34:40;4.03;;;3.50;;
21624;SDS011;10974;51.034;3.744;2023-02-21T17:37:07;6.23;;;4.30;;
21624;SDS011;10974;51.034;3.744;2023-02-21T17:39:34;5.87;;;4.30;;
21624;SDS011;10974;51.034;3.744;2023-02-21T17:42:00;6.20;;;4.70;;
21624;SDS011;10974;51.034;3.744;2023-02-21T17:44:26;10.00;;;5.27;;
21624;SDS011;10974;51.034;3.744;2023-02-21T17:46:53;8.47;;;5.90;;
21624;SDS011;10974;51.034;3.744;2023-02-21T17:49:21;7.13;;;5.40;;
21624;SDS011;10974;51.034;3.744;2023-02-21T17:51:47;8.97;;;5.53;;
21624;SDS011;10974;51.034;3.744;2023-02-21T17:54:18;14.23;;;7.33;;
21624;SDS011;10974;51.034;3.744;2023-02-21T17:56:44;13.03;;;7.73;;
21624;SDS011;10974;51.034;3.744;2023-02-21T17:59:10;14.97;;;8.90;;
21624;SDS011;10974;51.034;3.744;2023-02-21T18:01:37;13.17;;;7.57;;
21624;SDS011;10974;51.034;3.744;2023-02-21T18:04:05;13.03;;;7.37;;
21624;SDS011;10974;51.034;3.744;2023-02-21T18:06:31;14.10;;;7.60;;
21624;SDS011;10974;51.034;3.744;2023-02-21T18:08:57;12.70;;;7.20;;
21624;SDS011;10974;51.034;3.744;2023-02-21T18:11:24;16.27;;;8.70;;
21624;SDS011;10974;51.034;3.744;2023-02-21T18:13:50;18.10;;;10.63;;
21624;SDS011;10974;51.034;3.744;2023-02-21T18:16:17;19.70;;;10.10;;
21624;SDS011;10974;51.034;3.744;2023-02-21T18:18:43;22.03;;;10.30;;
21624;SDS011;10974;51.034;3.744;2023-02-21T18:21:09;19.97;;;10.00;;
21624;SDS011;10974;51.034;3.744;2023-02-21T18:23:36;19.00;;;9.90;;
21624;SDS011;10974;51.034;3.744;2023-02-21T18:26:03;25.03;;;12.60;;
21624;SDS011;10974;51.034;3.744;2023-02-21T18:28:29;20.17;;;11.60;;
21624;SDS011;10974;51.034;3.744;2023-02-21T18:30:57;21.63;;;11.03;;
21624;SDS011;10974;51.034;3.744;2023-02-21T18:33:23;22.53;;;11.33;;
21624;SDS011;10974;51.034;3.744;2023-02-21T18:35:53;23.30;;;11.10;;
21624;SDS011;10974;51.034;3.744;2023-02-21T18:38:20;22.13;;;11.63;;
21624;SDS011;10974;51.034;3.744;2023-02-21T18:40:46;19.07;;;9.87;;
21624;SDS011;10974;51.034;3.744;2023-02-21T18:43:17;21.53;;;11.10;;
21624;SDS011;10974;51.034;3.744;2023-02-21T18:45:44;24.53;;;11.77;;
21624;SDS011;10974;51.034;3.744;2023-02-21T18:48:10;26.37;;;12.07;;
21624;SDS011;10974;51.034;3.744;2023-02-21T18:50:36;22.33;;;11.73;;
21624;SDS011;10974;51.034;3.744;2023-02-21T18:53:02;24.33;;;11.40;;
21624;SDS011;10974;51.034;3.744;2023-02-21T18:55:29;23.60;;;11.80;;
21624;SDS011;10974;51.034;3.744;2023-02-21T18:57:56;17.23;;;9.87;;
21624;SDS011;10974;51.034;3.744;2023-02-21T19:00:22;21.40;;;11.20;;
21624;SDS011;10974;51.034;3.744;2023-02-21T19:02:49;21.83;;;10.77;;
21624;SDS011;10974;51.034;3.744;2023-02-21T19:05:19;15.20;;;10.00;;
21624;SDS011;10974;51.034;3.744;2023-02-21T19:07:46;17.20;;;8.90;;
21624;SDS011;10974;51.034;3.744;2023-02-21T19:10:14;14.17;;;8.10;;
21624;SDS011;10974;51.034;3.744;2023-02-21T19:12:41;15.70;;;9.20;;
21624;SDS011;10974;51.034;3.744;2023-02-21T19:15:07;14.23;;;8.53;;
21624;SDS011;10974;51.034;3.744;2023-02-21T19:17:33;19.47;;;9.87;;
21624;SDS011;10974;51.034;3.744;2023-02-21T19:20:00;13.73;;;8.30;;
21624;SDS011;10974;51.034;3.744;2023-02-21T19:22:26;15.60;;;8.77;;
21624;SDS011;10974;51.034;3.744;2023-02-21T19:24:52;14.73;;;7.77;;
21624;SDS011;10974;51.034;3.744;2023-02-21T19:27:18;15.77;;;9.27;;
21624;SDS011;10974;51.034;3.744;2023-02-21T19:29:44;13.87;;;8.07;;
21624;SDS011;10974;51.034;3.744;2023-02-21T19:32:11;15.23;;;8.27;;
21624;SDS011;10974;51.034;3.744;2023-02-21T19:34:38;15.10;;;9.37;;
21624;SDS011;10974;51.034;3.744;2023-02-21T19:37:04;15.40;;;8.33;;
21624;SDS011;10974;51.034;3.744;2023-02-21T19:39:30;15.07;;;9.40;;
21624;SDS011;10974;51.034;3.744;2023-02-21T19:41:56;17.70;;;9.57;;
21624;SDS011;10974;51.034;3.744;2023-02-21T19:44:22;15.10;;;9.40;;
21624;SDS011;10974;51.034;3.744;2023-02-21T19:46:48;19.87;;;11.23;;
21624;SDS011;10974;51.034;3.744;2023-02-21T19:49:14;18.27;;;9.93;;
21624;SDS011;10974;51.034;3.744;2023-02-21T19:51:45;13.67;;;9.20;;
21624;SDS011;10974;51.034;3.744;2023-02-21T19:54:12;17.70;;;10.10;;
21624;SDS011;10974;51.034;3.744;2023-02-21T19:56:38;16.60;;;9.57;;
21624;SDS011;10974;51.034;3.744;2023-02-21T19:59:04;17.90;;;10.30;;
21624;SDS011;10974;51.034;3.744;2023-02-21T20:01:30;17.00;;;10.10;;
21624;SDS011;10974;51.034;3.744;2023-02-21T20:03:57;17.83;;;10.90;;
21624;SDS011;10974;51.034;3.744;2023-02-21T20:06:23;18.70;;;10.27;;
21624;SDS011;10974;51.034;3.744;2023-02-21T20:08:52;17.00;;;9.90;;
21624;SDS011;10974;51.034;3.744;2023-02-21T20:11:18;19.07;;;10.90;;
21624;SDS011;10974;51.034;3.744;2023-02-21T20:13:44;23.63;;;11.53;;
21624;SDS011;10974;51.034;3.744;2023-02-21T20:16:11;22.13;;;11.70;;
21624;SDS011;10974;51.034;3.744;2023-02-21T20:18:39;17.80;;;10.53;;
21624;SDS011;10974;51.034;3.744;2023-02-21T20:21:05;18.33;;;10.63;;
21624;SDS011;10974;51.034;3.744;2023-02-21T20:23:31;20.13;;;11.87;;
21624;SDS011;10974;51.034;3.744;2023-02-21T20:25:57;18.40;;;11.50;;
21624;SDS011;10974;51.034;3.744;2023-02-21T20:28:23;19.87;;;10.93;;
21624;SDS011;10974;51.034;3.744;2023-02-21T20:30:49;20.67;;;11.53;;
21624;SDS011;10974;51.034;3.744;2023-02-21T20:33:15;18.93;;;11.37;;
21624;SDS011;10974;51.034;3.744;2023-02-21T20:35:44;17.63;;;10.63;;
21624;SDS011;10974;51.034;3.744;2023-02-21T20:38:12;22.73;;;12.37;;
21624;SDS011;10974;51.034;3.744;2023-02-21T20:40:38;19.33;;;11.43;;
21624;SDS011;10974;51.034;3.744;2023-02-21T20:43:04;20.77;;;12.03;;